sensor_id;sensor_type;location;lat;lon;timestamp;P1;durP1;ratioP1;P2;durP2;ratioP2
47309;SDS011;33046;52.270;6.832;2023-12-07T00:00:52;13.55;;;9.75;;
47309;SDS011;33046;52.270;6.832;2023-12-07T00:02:59;11.75;;;10.32;;
47309;SDS011;33046;52.270;6.832;2023-12-07T00:05:06;13.07;;;9.18;;
47309;SDS011;33046;52.270;6.832;2023-12-07T00:07:13;11.15;;;9.35;;
47309;SDS011;33046;52.270;6.832;2023-12-07T00:09:20;13.50;;;8.93;;
47309;SDS011;33046;52.270;6.832;2023-12-07T00:11:27;11.65;;;9.55;;
47309;SDS011;33046;52.270;6.832;2023-12-07T00:13:35;12.60;;;9.63;;
47309;SDS011;33046;52.270;6.832;2023-12-07T00:15:42;11.18;;;10.07;;
47309;SDS011;33046;52.270;6.832;2023-12-07T00:17:49;12.73;;;10.32;;
47309;SDS011;33046;52.270;6.832;2023-12-07T00:19:56;11.70;;;10.55;;
47309;SDS011;33046;52.270;6.832;2023-12-07T00:22:03;10.88;;;9.38;;
47309;SDS011;33046;52.270;6.832;2023-12-07T00:24:10;11.73;;;9.77;;
47309;SDS011;33046;52.270;6.832;2023-12-07T00:26:16;12.10;;;9.88;;
47309;SDS011;33046;52.270;6.832;2023-12-07T00:28:23;10.43;;;9.30;;
47309;SDS011;33046;52.270;6.832;2023-12-07T00:30:32;10.73;;;9.27;;
47309;SDS011;33046;52.270;6.832;2023-12-07T00:32:38;13.35;;;10.10;;
47309;SDS011;33046;52.270;6.832;2023-12-07T00:34:45;10.95;;;9.85;;
47309;SDS011;33046;52.270;6.832;2023-12-07T00:36:52;10.68;;;9.60;;
47309;SDS011;33046;52.270;6.832;2023-12-07T00:38:59;10.40;;;8.95;;
47309;SDS011;33046;52.270;6.832;2023-12-07T00:41:06;12.35;;;9.98;;
47309;SDS011;33046;52.270;6.832;2023-12-07T00:43:13;10.38;;;9.27;;
47309;SDS011;33046;52.270;6.832;2023-12-07T00:45:19;13.40;;;10.63;;
47309;SDS011;33046;52.270;6.832;2023-12-07T00:47:27;12.32;;;11.02;;
47309;SDS011;33046;52.270;6.832;2023-12-07T00:49:37;11.75;;;10.00;;
47309;SDS011;33046;52.270;6.832;2023-12-07T00:51:44;11.90;;;10.68;;
47309;SDS011;33046;52.270;6.832;2023-12-07T00:53:51;10.35;;;9.25;;
47309;SDS011;33046;52.270;6.832;2023-12-07T00:55:57;14.07;;;10.95;;
47309;SDS011;33046;52.270;6.832;2023-12-07T00:58:04;12.77;;;10.73;;
47309;SDS011;33046;52.270;6.832;2023-12-07T01:00:11;11.07;;;9.98;;
47309;SDS011;33046;52.270;6.832;2023-12-07T01:02:19;12.43;;;9.43;;
47309;SDS011;33046;52.270;6.832;2023-12-07T01:04:27;11.60;;;9.43;;
47309;SDS011;33046;52.270;6.832;2023-12-07T01:06:34;11.63;;;10.43;;
47309;SDS011;33046;52.270;6.832;2023-12-07T01:08:41;11.10;;;9.90;;
47309;SDS011;33046;52.270;6.832;2023-12-07T01:10:48;12.63;;;9.50;;
47309;SDS011;33046;52.270;6.832;2023-12-07T01:12:54;10.98;;;9.90;;
47309;SDS011;33046;52.270;6.832;2023-12-07T01:15:01;11.05;;;9.95;;
47309;SDS011;33046;52.270;6.832;2023-12-07T01:17:10;11.35;;;9.90;;
47309;SDS011;33046;52.270;6.832;2023-12-07T01:19:16;10.93;;;9.57;;
47309;SDS011;33046;52.270;6.832;2023-12-07T01:21:25;11.88;;;10.30;;
47309;SDS011;33046;52.270;6.832;2023-12-07T01:23:32;10.48;;;8.98;;
47309;SDS011;33046;52.270;6.832;2023-12-07T01:25:39;11.57;;;9.63;;
47309;SDS011;33046;52.270;6.832;2023-12-07T01:27:45;11.20;;;10.05;;
47309;SDS011;33046;52.270;6.832;2023-12-07T01:29:52;13.10;;;10.38;;
47309;SDS011;33046;52.270;6.832;2023-12-07T01:31:59;11.13;;;10.02;;
47309;SDS011;33046;52.270;6.832;2023-12-07T01:34:06;9.73;;;8.75;;
47309;SDS011;33046;52.270;6.832;2023-12-07T01:36:13;11.27;;;9.23;;
47309;SDS011;33046;52.270;6.832;2023-12-07T01:38:21;13.27;;;10.23;;
47309;SDS011;33046;52.270;6.832;2023-12-07T01:40:28;11.90;;;10.25;;
47309;SDS011;33046;52.270;6.832;2023-12-07T01:42:35;10.68;;;9.52;;
47309;SDS011;33046;52.270;6.832;2023-12-07T01:44:42;10.25;;;9.20;;
47309;SDS011;33046;52.270;6.832;2023-12-07T01:46:49;11.10;;;10.00;;
47309;SDS011;33046;52.270;6.832;2023-12-07T01:48:55;12.30;;;10.65;;
47309;SDS011;33046;52.270;6.832;2023-12-07T01:51:02;11.40;;;10.25;;
47309;SDS011;33046;52.270;6.832;2023-12-07T01:53:10;17.17;;;11.27;;
47309;SDS011;33046;52.270;6.832;2023-12-07T01:55:18;10.30;;;9.30;;
47309;SDS011;33046;52.270;6.832;2023-12-07T01:57:26;12.43;;;11.15;;
47309;SDS011;33046;52.270;6.832;2023-12-07T01:59:33;11.38;;;9.95;;
47309;SDS011;33046;52.270;6.832;2023-12-07T02:01:40;12.02;;;9.57;;
47309;SDS011;33046;52.270;6.832;2023-12-07T02:03:47;10.57;;;9.55;;
47309;SDS011;33046;52.270;6.832;2023-12-07T02:05:54;12.20;;;9.85;;
47309;SDS011;33046;52.270;6.832;2023-12-07T02:08:02;12.00;;;10.73;;
47309;SDS011;33046;52.270;6.832;2023-12-07T02:10:10;11.10;;;9.98;;
47309;SDS011;33046;52.270;6.832;2023-12-07T02:12:18;12.07;;;10.77;;
47309;SDS011;33046;52.270;6.832;2023-12-07T02:14:25;14.88;;;10.27;;
47309;SDS011;33046;52.270;6.832;2023-12-07T02:16:35;14.77;;;11.68;;
47309;SDS011;33046;52.270;6.832;2023-12-07T02:18:50;12.10;;;10.95;;
47309;SDS011;33046;52.270;6.832;2023-12-07T02:21:04;10.75;;;9.70;;
47309;SDS011;33046;52.270;6.832;2023-12-07T02:23:19;11.57;;;10.35;;
47309;SDS011;33046;52.270;6.832;2023-12-07T02:25:35;14.13;;;11.63;;
47309;SDS011;33046;52.270;6.832;2023-12-07T02:27:48;12.80;;;11.50;;
47309;SDS011;33046;52.270;6.832;2023-12-07T02:29:54;14.95;;;11.13;;
47309;SDS011;33046;52.270;6.832;2023-12-07T02:32:01;12.48;;;10.85;;
47309;SDS011;33046;52.270;6.832;2023-12-07T02:34:08;14.68;;;11.38;;
47309;SDS011;33046;52.270;6.832;2023-12-07T02:36:15;13.00;;;11.55;;
47309;SDS011;33046;52.270;6.832;2023-12-07T02:38:28;12.23;;;10.95;;
47309;SDS011;33046;52.270;6.832;2023-12-07T02:40:35;13.18;;;11.77;;
47309;SDS011;33046;52.270;6.832;2023-12-07T02:42:43;14.55;;;11.60;;
47309;SDS011;33046;52.270;6.832;2023-12-07T02:44:52;13.18;;;10.57;;
47309;SDS011;33046;52.270;6.832;2023-12-07T02:47:00;13.13;;;10.27;;
47309;SDS011;33046;52.270;6.832;2023-12-07T02:49:06;17.92;;;12.20;;
47309;SDS011;33046;52.270;6.832;2023-12-07T02:51:13;11.15;;;10.05;;
47309;SDS011;33046;52.270;6.832;2023-12-07T02:53:20;13.10;;;11.82;;
47309;SDS011;33046;52.270;6.832;2023-12-07T02:55:27;12.75;;;11.32;;
47309;SDS011;33046;52.270;6.832;2023-12-07T02:57:34;13.52;;;12.13;;
47309;SDS011;33046;52.270;6.832;2023-12-07T02:59:41;14.35;;;11.85;;
47309;SDS011;33046;52.270;6.832;2023-12-07T03:01:49;13.57;;;12.18;;
47309;SDS011;33046;52.270;6.832;2023-12-07T03:03:56;13.75;;;12.10;;
47309;SDS011;33046;52.270;6.832;2023-12-07T03:06:03;11.90;;;10.70;;
47309;SDS011;33046;52.270;6.832;2023-12-07T03:08:10;12.20;;;10.88;;
47309;SDS011;33046;52.270;6.832;2023-12-07T03:10:17;12.90;;;11.20;;
47309;SDS011;33046;52.270;6.832;2023-12-07T03:12:23;12.50;;;11.15;;
47309;SDS011;33046;52.270;6.832;2023-12-07T03:14:30;11.85;;;10.73;;
47309;SDS011;33046;52.270;6.832;2023-12-07T03:16:38;11.98;;;10.60;;
47309;SDS011;33046;52.270;6.832;2023-12-07T03:18:46;12.40;;;11.10;;
47309;SDS011;33046;52.270;6.832;2023-12-07T03:20:53;12.30;;;10.98;;
47309;SDS011;33046;52.270;6.832;2023-12-07T03:23:00;12.48;;;11.02;;
47309;SDS011;33046;52.270;6.832;2023-12-07T03:25:07;12.68;;;10.40;;
47309;SDS011;33046;52.270;6.832;2023-12-07T03:27:14;11.25;;;10.15;;
47309;SDS011;33046;52.270;6.832;2023-12-07T03:29:20;11.07;;;9.98;;
47309;SDS011;33046;52.270;6.832;2023-12-07T03:31:27;13.63;;;10.27;;
47309;SDS011;33046;52.270;6.832;2023-12-07T03:33:35;12.20;;;10.55;;
47309;SDS011;33046;52.270;6.832;2023-12-07T03:35:43;13.05;;;10.75;;
47309;SDS011;33046;52.270;6.832;2023-12-07T03:37:50;18.73;;;12.25;;
47309;SDS011;33046;52.270;6.832;2023-12-07T03:39:57;11.30;;;10.20;;
47309;SDS011;33046;52.270;6.832;2023-12-07T03:42:04;12.90;;;9.93;;
47309;SDS011;33046;52.270;6.832;2023-12-07T03:44:11;12.95;;;11.73;;
47309;SDS011;33046;52.270;6.832;2023-12-07T03:46:18;14.18;;;11.25;;
47309;SDS011;33046;52.270;6.832;2023-12-07T03:48:24;11.85;;;10.65;;
47309;SDS011;33046;52.270;6.832;2023-12-07T03:50:32;12.85;;;11.30;;
47309;SDS011;33046;52.270;6.832;2023-12-07T03:52:40;12.63;;;11.45;;
47309;SDS011;33046;52.270;6.832;2023-12-07T03:54:47;12.85;;;11.52;;
47309;SDS011;33046;52.270;6.832;2023-12-07T03:56:53;11.90;;;10.70;;
47309;SDS011;33046;52.270;6.832;2023-12-07T03:59:00;13.98;;;12.48;;
47309;SDS011;33046;52.270;6.832;2023-12-07T04:01:07;15.35;;;12.13;;
47309;SDS011;33046;52.270;6.832;2023-12-07T04:03:14;13.60;;;11.13;;
47309;SDS011;33046;52.270;6.832;2023-12-07T04:05:21;12.65;;;11.38;;
47309;SDS011;33046;52.270;6.832;2023-12-07T04:07:28;13.38;;;11.23;;
47309;SDS011;33046;52.270;6.832;2023-12-07T04:09:36;27.90;;;11.95;;
47309;SDS011;33046;52.270;6.832;2023-12-07T04:11:43;14.07;;;11.18;;
47309;SDS011;33046;52.270;6.832;2023-12-07T04:13:49;12.68;;;11.05;;
47309;SDS011;33046;52.270;6.832;2023-12-07T04:15:56;13.38;;;11.77;;
47309;SDS011;33046;52.270;6.832;2023-12-07T04:18:03;14.43;;;11.88;;
47309;SDS011;33046;52.270;6.832;2023-12-07T04:20:10;13.73;;;11.38;;
47309;SDS011;33046;52.270;6.832;2023-12-07T04:22:17;14.80;;;12.23;;
47309;SDS011;33046;52.270;6.832;2023-12-07T04:24:24;13.68;;;11.65;;
47309;SDS011;33046;52.270;6.832;2023-12-07T04:26:32;13.27;;;11.57;;
47309;SDS011;33046;52.270;6.832;2023-12-07T04:28:39;16.17;;;12.77;;
47309;SDS011;33046;52.270;6.832;2023-12-07T04:30:46;16.38;;;12.18;;
47309;SDS011;33046;52.270;6.832;2023-12-07T04:32:53;15.85;;;13.02;;
47309;SDS011;33046;52.270;6.832;2023-12-07T04:35:00;19.23;;;14.40;;
47309;SDS011;33046;52.270;6.832;2023-12-07T04:37:07;18.33;;;13.00;;
47309;SDS011;33046;52.270;6.832;2023-12-07T04:39:13;13.85;;;11.20;;
47309;SDS011;33046;52.270;6.832;2023-12-07T04:41:20;23.15;;;12.43;;
47309;SDS011;33046;52.270;6.832;2023-12-07T04:43:28;40.80;;;12.82;;
47309;SDS011;33046;52.270;6.832;2023-12-07T04:45:35;21.13;;;11.43;;
47309;SDS011;33046;52.270;6.832;2023-12-07T04:47:42;12.73;;;10.68;;
47309;SDS011;33046;52.270;6.832;2023-12-07T04:49:49;12.20;;;10.27;;
47309;SDS011;33046;52.270;6.832;2023-12-07T04:51:56;13.70;;;10.85;;
47309;SDS011;33046;52.270;6.832;2023-12-07T04:54:03;12.77;;;10.98;;
47309;SDS011;33046;52.270;6.832;2023-12-07T04:56:11;12.85;;;10.40;;
47309;SDS011;33046;52.270;6.832;2023-12-07T04:58:17;10.23;;;9.05;;
47309;SDS011;33046;52.270;6.832;2023-12-07T05:00:26;10.70;;;9.60;;
47309;SDS011;33046;52.270;6.832;2023-12-07T05:02:33;11.55;;;9.57;;
47309;SDS011;33046;52.270;6.832;2023-12-07T05:04:39;9.93;;;8.95;;
47309;SDS011;33046;52.270;6.832;2023-12-07T05:06:46;10.50;;;9.50;;
47309;SDS011;33046;52.270;6.832;2023-12-07T05:08:53;11.68;;;9.15;;
47309;SDS011;33046;52.270;6.832;2023-12-07T05:11:00;11.20;;;10.10;;
47309;SDS011;33046;52.270;6.832;2023-12-07T05:13:07;9.35;;;8.30;;
47309;SDS011;33046;52.270;6.832;2023-12-07T05:15:14;10.80;;;8.43;;
47309;SDS011;33046;52.270;6.832;2023-12-07T05:17:22;12.68;;;8.80;;
47309;SDS011;33046;52.270;6.832;2023-12-07T05:19:29;9.20;;;8.30;;
47309;SDS011;33046;52.270;6.832;2023-12-07T05:21:36;9.25;;;8.30;;
47309;SDS011;33046;52.270;6.832;2023-12-07T05:23:44;10.02;;;9.00;;
47309;SDS011;33046;52.270;6.832;2023-12-07T05:25:51;9.45;;;8.52;;
47309;SDS011;33046;52.270;6.832;2023-12-07T05:27:58;9.85;;;8.90;;
47309;SDS011;33046;52.270;6.832;2023-12-07T05:30:05;9.75;;;8.80;;
47309;SDS011;33046;52.270;6.832;2023-12-07T05:32:12;9.93;;;8.80;;
47309;SDS011;33046;52.270;6.832;2023-12-07T05:34:20;9.18;;;8.25;;
47309;SDS011;33046;52.270;6.832;2023-12-07T05:36:27;10.48;;;9.48;;
47309;SDS011;33046;52.270;6.832;2023-12-07T05:38:34;9.40;;;8.50;;
47309;SDS011;33046;52.270;6.832;2023-12-07T05:40:41;19.45;;;9.48;;
47309;SDS011;33046;52.270;6.832;2023-12-07T05:42:49;9.38;;;8.32;;
47309;SDS011;33046;52.270;6.832;2023-12-07T05:44:57;9.57;;;7.90;;
47309;SDS011;33046;52.270;6.832;2023-12-07T05:47:04;9.48;;;8.48;;
47309;SDS011;33046;52.270;6.832;2023-12-07T05:49:11;9.25;;;8.38;;
47309;SDS011;33046;52.270;6.832;2023-12-07T05:51:19;9.77;;;7.80;;
47309;SDS011;33046;52.270;6.832;2023-12-07T05:53:26;9.30;;;8.40;;
47309;SDS011;33046;52.270;6.832;2023-12-07T05:55:33;19.00;;;9.60;;
47309;SDS011;33046;52.270;6.832;2023-12-07T05:57:40;8.95;;;8.05;;
47309;SDS011;33046;52.270;6.832;2023-12-07T05:59:47;9.32;;;8.43;;
47309;SDS011;33046;52.270;6.832;2023-12-07T06:01:53;10.90;;;9.05;;
47309;SDS011;33046;52.270;6.832;2023-12-07T06:04:01;13.40;;;9.80;;
47309;SDS011;33046;52.270;6.832;2023-12-07T06:06:08;11.70;;;10.45;;
47309;SDS011;33046;52.270;6.832;2023-12-07T06:08:16;10.15;;;9.15;;
47309;SDS011;33046;52.270;6.832;2023-12-07T06:10:23;10.27;;;9.27;;
47309;SDS011;33046;52.270;6.832;2023-12-07T06:12:30;10.38;;;9.40;;
47309;SDS011;33046;52.270;6.832;2023-12-07T06:14:37;14.77;;;9.68;;
47309;SDS011;33046;52.270;6.832;2023-12-07T06:16:43;11.15;;;10.10;;
47309;SDS011;33046;52.270;6.832;2023-12-07T06:18:50;11.90;;;9.07;;
47309;SDS011;33046;52.270;6.832;2023-12-07T06:20:57;19.92;;;10.63;;
47309;SDS011;33046;52.270;6.832;2023-12-07T06:23:04;14.10;;;10.63;;
47309;SDS011;33046;52.270;6.832;2023-12-07T06:25:12;14.23;;;10.73;;
47309;SDS011;33046;52.270;6.832;2023-12-07T06:27:19;19.02;;;10.82;;
47309;SDS011;33046;52.270;6.832;2023-12-07T06:29:26;17.38;;;10.82;;
47309;SDS011;33046;52.270;6.832;2023-12-07T06:31:34;21.48;;;12.82;;
47309;SDS011;33046;52.270;6.832;2023-12-07T06:33:41;18.75;;;11.48;;
47309;SDS011;33046;52.270;6.832;2023-12-07T06:35:48;14.32;;;11.02;;
47309;SDS011;33046;52.270;6.832;2023-12-07T06:37:55;12.60;;;11.38;;
47309;SDS011;33046;52.270;6.832;2023-12-07T06:40:02;12.60;;;11.18;;
47309;SDS011;33046;52.270;6.832;2023-12-07T06:42:10;31.20;;;11.93;;
47309;SDS011;33046;52.270;6.832;2023-12-07T06:44:17;12.77;;;11.43;;
47309;SDS011;33046;52.270;6.832;2023-12-07T06:46:24;13.05;;;11.75;;
47309;SDS011;33046;52.270;6.832;2023-12-07T06:48:31;12.80;;;11.35;;
47309;SDS011;33046;52.270;6.832;2023-12-07T06:50:38;13.95;;;12.23;;
47309;SDS011;33046;52.270;6.832;2023-12-07T06:52:45;14.77;;;12.52;;
47309;SDS011;33046;52.270;6.832;2023-12-07T06:54:51;13.27;;;11.98;;
47309;SDS011;33046;52.270;6.832;2023-12-07T06:56:58;26.25;;;12.52;;
47309;SDS011;33046;52.270;6.832;2023-12-07T06:59:06;12.70;;;10.95;;
47309;SDS011;33046;52.270;6.832;2023-12-07T07:01:13;18.45;;;13.57;;
47309;SDS011;33046;52.270;6.832;2023-12-07T07:03:20;15.18;;;12.98;;
47309;SDS011;33046;52.270;6.832;2023-12-07T07:05:27;14.30;;;12.80;;
47309;SDS011;33046;52.270;6.832;2023-12-07T07:07:34;15.15;;;13.55;;
47309;SDS011;33046;52.270;6.832;2023-12-07T07:09:41;13.85;;;12.40;;
47309;SDS011;33046;52.270;6.832;2023-12-07T07:11:48;13.60;;;12.20;;
47309;SDS011;33046;52.270;6.832;2023-12-07T07:13:55;14.02;;;12.75;;
47309;SDS011;33046;52.270;6.832;2023-12-07T07:16:03;13.60;;;12.20;;
47309;SDS011;33046;52.270;6.832;2023-12-07T07:18:12;15.30;;;13.70;;
47309;SDS011;33046;52.270;6.832;2023-12-07T07:20:19;13.27;;;12.07;;
47309;SDS011;33046;52.270;6.832;2023-12-07T07:22:26;17.63;;;14.60;;
47309;SDS011;33046;52.270;6.832;2023-12-07T07:24:32;16.77;;;12.98;;
47309;SDS011;33046;52.270;6.832;2023-12-07T07:26:39;15.60;;;13.90;;
47309;SDS011;33046;52.270;6.832;2023-12-07T07:28:46;17.00;;;14.38;;
47309;SDS011;33046;52.270;6.832;2023-12-07T07:30:53;17.15;;;14.23;;
47309;SDS011;33046;52.270;6.832;2023-12-07T07:33:01;18.10;;;14.88;;
47309;SDS011;33046;52.270;6.832;2023-12-07T07:35:08;16.83;;;15.00;;
47309;SDS011;33046;52.270;6.832;2023-12-07T07:37:15;17.20;;;14.60;;
47309;SDS011;33046;52.270;6.832;2023-12-07T07:39:22;16.73;;;14.93;;
47309;SDS011;33046;52.270;6.832;2023-12-07T07:41:29;18.20;;;14.40;;
47309;SDS011;33046;52.270;6.832;2023-12-07T07:43:36;20.23;;;16.85;;
47309;SDS011;33046;52.270;6.832;2023-12-07T07:45:43;19.00;;;15.93;;
47309;SDS011;33046;52.270;6.832;2023-12-07T07:47:50;21.42;;;16.38;;
47309;SDS011;33046;52.270;6.832;2023-12-07T07:49:58;22.17;;;16.35;;
47309;SDS011;33046;52.270;6.832;2023-12-07T07:52:05;21.95;;;16.60;;
47309;SDS011;33046;52.270;6.832;2023-12-07T07:54:12;23.88;;;18.33;;
47309;SDS011;33046;52.270;6.832;2023-12-07T07:56:19;24.13;;;18.17;;
47309;SDS011;33046;52.270;6.832;2023-12-07T07:58:26;24.58;;;18.77;;
47309;SDS011;33046;52.270;6.832;2023-12-07T08:00:33;26.52;;;18.85;;
47309;SDS011;33046;52.270;6.832;2023-12-07T08:02:40;30.38;;;20.55;;
47309;SDS011;33046;52.270;6.832;2023-12-07T08:04:46;32.40;;;20.90;;
47309;SDS011;33046;52.270;6.832;2023-12-07T08:06:55;25.40;;;19.85;;
47309;SDS011;33046;52.270;6.832;2023-12-07T08:09:02;26.40;;;19.48;;
47309;SDS011;33046;52.270;6.832;2023-12-07T08:11:09;31.63;;;20.08;;
47309;SDS011;33046;52.270;6.832;2023-12-07T08:13:15;32.47;;;20.85;;
47309;SDS011;33046;52.270;6.832;2023-12-07T08:15:22;31.35;;;20.88;;
47309;SDS011;33046;52.270;6.832;2023-12-07T08:17:29;33.90;;;22.58;;
47309;SDS011;33046;52.270;6.832;2023-12-07T08:19:36;30.92;;;21.83;;
47309;SDS011;33046;52.270;6.832;2023-12-07T08:21:43;35.42;;;22.85;;
47309;SDS011;33046;52.270;6.832;2023-12-07T08:23:51;38.85;;;23.00;;
47309;SDS011;33046;52.270;6.832;2023-12-07T08:25:58;44.78;;;23.15;;
47309;SDS011;33046;52.270;6.832;2023-12-07T08:28:05;37.72;;;23.88;;
47309;SDS011;33046;52.270;6.832;2023-12-07T08:30:12;39.05;;;26.02;;
47309;SDS011;33046;52.270;6.832;2023-12-07T08:32:19;40.63;;;24.50;;
47309;SDS011;33046;52.270;6.832;2023-12-07T08:34:26;35.40;;;23.80;;
47309;SDS011;33046;52.270;6.832;2023-12-07T08:36:32;53.28;;;26.63;;
47309;SDS011;33046;52.270;6.832;2023-12-07T08:38:39;68.05;;;26.02;;
47309;SDS011;33046;52.270;6.832;2023-12-07T08:40:47;45.92;;;26.65;;
47309;SDS011;33046;52.270;6.832;2023-12-07T08:42:54;40.88;;;25.77;;
47309;SDS011;33046;52.270;6.832;2023-12-07T08:45:01;41.33;;;25.73;;
47309;SDS011;33046;52.270;6.832;2023-12-07T08:47:08;40.53;;;26.52;;
47309;SDS011;33046;52.270;6.832;2023-12-07T08:49:15;38.95;;;24.83;;
47309;SDS011;33046;52.270;6.832;2023-12-07T08:51:22;40.70;;;25.80;;
47309;SDS011;33046;52.270;6.832;2023-12-07T08:53:29;38.72;;;25.55;;
47309;SDS011;33046;52.270;6.832;2023-12-07T08:55:36;48.35;;;27.27;;
47309;SDS011;33046;52.270;6.832;2023-12-07T08:57:44;36.40;;;25.45;;
47309;SDS011;33046;52.270;6.832;2023-12-07T08:59:51;44.65;;;27.08;;
47309;SDS011;33046;52.270;6.832;2023-12-07T09:01:57;39.78;;;26.33;;
47309;SDS011;33046;52.270;6.832;2023-12-07T09:04:04;38.33;;;24.50;;
47309;SDS011;33046;52.270;6.832;2023-12-07T09:06:11;51.20;;;28.23;;
47309;SDS011;33046;52.270;6.832;2023-12-07T09:08:18;42.83;;;27.60;;
47309;SDS011;33046;52.270;6.832;2023-12-07T09:10:25;84.25;;;26.77;;
47309;SDS011;33046;52.270;6.832;2023-12-07T09:12:32;48.75;;;27.10;;
47309;SDS011;33046;52.270;6.832;2023-12-07T09:14:41;43.70;;;26.27;;
47309;SDS011;33046;52.270;6.832;2023-12-07T09:16:48;38.88;;;24.58;;
47309;SDS011;33046;52.270;6.832;2023-12-07T09:18:55;41.45;;;24.42;;
47309;SDS011;33046;52.270;6.832;2023-12-07T09:21:02;40.97;;;27.63;;
47309;SDS011;33046;52.270;6.832;2023-12-07T09:23:09;46.08;;;27.67;;
47309;SDS011;33046;52.270;6.832;2023-12-07T09:25:16;42.03;;;27.10;;
47309;SDS011;33046;52.270;6.832;2023-12-07T09:27:22;44.50;;;27.20;;
47309;SDS011;33046;52.270;6.832;2023-12-07T09:29:29;51.50;;;29.50;;
47309;SDS011;33046;52.270;6.832;2023-12-07T09:31:37;55.05;;;29.67;;
47309;SDS011;33046;52.270;6.832;2023-12-07T09:33:44;46.85;;;27.17;;
47309;SDS011;33046;52.270;6.832;2023-12-07T09:35:51;52.03;;;28.00;;
47309;SDS011;33046;52.270;6.832;2023-12-07T09:37:58;49.70;;;27.85;;
47309;SDS011;33046;52.270;6.832;2023-12-07T09:40:05;48.97;;;28.40;;
47309;SDS011;33046;52.270;6.832;2023-12-07T09:42:13;57.72;;;29.75;;
47309;SDS011;33046;52.270;6.832;2023-12-07T09:44:20;56.10;;;30.35;;
47309;SDS011;33046;52.270;6.832;2023-12-07T09:46:27;56.90;;;29.38;;
47309;SDS011;33046;52.270;6.832;2023-12-07T09:48:37;52.70;;;31.70;;
47309;SDS011;33046;52.270;6.832;2023-12-07T09:50:46;51.20;;;29.55;;
47309;SDS011;33046;52.270;6.832;2023-12-07T09:52:54;49.58;;;28.08;;
47309;SDS011;33046;52.270;6.832;2023-12-07T09:55:05;49.17;;;25.67;;
47309;SDS011;33046;52.270;6.832;2023-12-07T09:57:13;56.35;;;27.60;;
47309;SDS011;33046;52.270;6.832;2023-12-07T09:59:21;46.50;;;26.45;;
47309;SDS011;33046;52.270;6.832;2023-12-07T10:01:28;45.50;;;25.42;;
47309;SDS011;33046;52.270;6.832;2023-12-07T10:03:36;48.35;;;27.35;;
47309;SDS011;33046;52.270;6.832;2023-12-07T10:05:56;47.05;;;24.73;;
47309;SDS011;33046;52.270;6.832;2023-12-07T10:08:03;52.03;;;28.88;;
47309;SDS011;33046;52.270;6.832;2023-12-07T10:10:11;51.63;;;30.08;;
47309;SDS011;33046;52.270;6.832;2023-12-07T10:12:18;56.63;;;33.42;;
47309;SDS011;33046;52.270;6.832;2023-12-07T10:14:25;60.38;;;36.65;;
47309;SDS011;33046;52.270;6.832;2023-12-07T10:16:33;48.85;;;29.65;;
47309;SDS011;33046;52.270;6.832;2023-12-07T10:18:41;44.50;;;27.52;;
47309;SDS011;33046;52.270;6.832;2023-12-07T10:20:49;40.97;;;25.45;;
47309;SDS011;33046;52.270;6.832;2023-12-07T10:23:02;42.55;;;27.83;;
47309;SDS011;33046;52.270;6.832;2023-12-07T10:25:10;47.85;;;29.17;;
47309;SDS011;33046;52.270;6.832;2023-12-07T10:27:17;47.42;;;31.30;;
47309;SDS011;33046;52.270;6.832;2023-12-07T10:29:24;48.72;;;30.38;;
47309;SDS011;33046;52.270;6.832;2023-12-07T10:31:32;46.42;;;28.98;;
47309;SDS011;33046;52.270;6.832;2023-12-07T10:33:39;59.72;;;38.05;;
47309;SDS011;33046;52.270;6.832;2023-12-07T10:35:47;51.28;;;29.98;;
47309;SDS011;33046;52.270;6.832;2023-12-07T10:37:54;48.28;;;28.52;;
47309;SDS011;33046;52.270;6.832;2023-12-07T10:40:02;50.80;;;29.05;;
47309;SDS011;33046;52.270;6.832;2023-12-07T10:42:10;53.83;;;30.45;;
47309;SDS011;33046;52.270;6.832;2023-12-07T10:44:18;53.70;;;28.88;;
47309;SDS011;33046;52.270;6.832;2023-12-07T10:46:25;52.47;;;30.20;;
47309;SDS011;33046;52.270;6.832;2023-12-07T10:48:33;54.92;;;30.73;;
47309;SDS011;33046;52.270;6.832;2023-12-07T10:50:42;47.80;;;26.95;;
47309;SDS011;33046;52.270;6.832;2023-12-07T10:52:53;55.63;;;30.65;;
47309;SDS011;33046;52.270;6.832;2023-12-07T10:55:04;58.25;;;30.15;;
47309;SDS011;33046;52.270;6.832;2023-12-07T10:57:13;49.22;;;29.65;;
47309;SDS011;33046;52.270;6.832;2023-12-07T10:59:20;50.30;;;29.42;;
47309;SDS011;33046;52.270;6.832;2023-12-07T11:01:28;50.03;;;27.92;;
47309;SDS011;33046;52.270;6.832;2023-12-07T11:03:37;51.72;;;29.23;;
47309;SDS011;33046;52.270;6.832;2023-12-07T11:05:45;54.95;;;29.48;;
47309;SDS011;33046;52.270;6.832;2023-12-07T11:07:55;56.75;;;29.23;;
47309;SDS011;33046;52.270;6.832;2023-12-07T11:10:11;52.05;;;30.10;;
47309;SDS011;33046;52.270;6.832;2023-12-07T11:12:28;57.35;;;32.80;;
47309;SDS011;33046;52.270;6.832;2023-12-07T11:14:41;54.55;;;28.83;;
47309;SDS011;33046;52.270;6.832;2023-12-07T11:16:48;54.45;;;29.70;;
47309;SDS011;33046;52.270;6.832;2023-12-07T11:18:55;53.78;;;29.63;;
47309;SDS011;33046;52.270;6.832;2023-12-07T11:21:02;50.10;;;28.80;;
47309;SDS011;33046;52.270;6.832;2023-12-07T11:23:10;50.03;;;27.13;;
47309;SDS011;33046;52.270;6.832;2023-12-07T11:25:17;52.80;;;29.63;;
47309;SDS011;33046;52.270;6.832;2023-12-07T11:27:24;48.15;;;27.08;;
47309;SDS011;33046;52.270;6.832;2023-12-07T11:29:35;50.67;;;28.25;;
47309;SDS011;33046;52.270;6.832;2023-12-07T11:31:42;54.08;;;30.15;;
47309;SDS011;33046;52.270;6.832;2023-12-07T11:33:48;53.22;;;28.35;;
47309;SDS011;33046;52.270;6.832;2023-12-07T11:36:05;50.38;;;28.08;;
47309;SDS011;33046;52.270;6.832;2023-12-07T11:38:14;59.30;;;31.83;;
47309;SDS011;33046;52.270;6.832;2023-12-07T11:40:21;47.33;;;27.73;;
47309;SDS011;33046;52.270;6.832;2023-12-07T11:42:30;49.60;;;29.02;;
47309;SDS011;33046;52.270;6.832;2023-12-07T11:44:37;53.45;;;28.25;;
47309;SDS011;33046;52.270;6.832;2023-12-07T11:46:44;50.08;;;27.35;;
47309;SDS011;33046;52.270;6.832;2023-12-07T11:48:51;44.10;;;27.90;;
47309;SDS011;33046;52.270;6.832;2023-12-07T11:50:59;41.33;;;24.90;;
47309;SDS011;33046;52.270;6.832;2023-12-07T11:53:06;39.63;;;22.40;;
47309;SDS011;33046;52.270;6.832;2023-12-07T11:55:14;42.75;;;24.92;;
47309;SDS011;33046;52.270;6.832;2023-12-07T11:57:21;34.95;;;21.65;;
47309;SDS011;33046;52.270;6.832;2023-12-07T11:59:28;40.78;;;23.40;;
47309;SDS011;33046;52.270;6.832;2023-12-07T12:01:37;40.75;;;25.92;;
47309;SDS011;33046;52.270;6.832;2023-12-07T12:03:43;47.40;;;33.47;;
47309;SDS011;33046;52.270;6.832;2023-12-07T12:05:50;46.33;;;31.30;;
47309;SDS011;33046;52.270;6.832;2023-12-07T12:07:57;42.67;;;28.48;;
47309;SDS011;33046;52.270;6.832;2023-12-07T12:10:05;41.85;;;27.17;;
47309;SDS011;33046;52.270;6.832;2023-12-07T12:12:14;46.35;;;28.27;;
47309;SDS011;33046;52.270;6.832;2023-12-07T12:14:20;42.55;;;25.58;;
47309;SDS011;33046;52.270;6.832;2023-12-07T12:16:27;39.22;;;26.85;;
47309;SDS011;33046;52.270;6.832;2023-12-07T12:18:34;37.08;;;23.75;;
47309;SDS011;33046;52.270;6.832;2023-12-07T12:20:41;38.17;;;23.85;;
47309;SDS011;33046;52.270;6.832;2023-12-07T12:22:50;36.65;;;23.50;;
47309;SDS011;33046;52.270;6.832;2023-12-07T12:24:57;35.30;;;24.55;;
47309;SDS011;33046;52.270;6.832;2023-12-07T12:27:05;37.30;;;23.95;;
47309;SDS011;33046;52.270;6.832;2023-12-07T12:29:14;38.42;;;24.98;;